createdAt,value
2018-08-07T00:01:08.629Z,25.40
2018-08-07T00:03:37.048Z,25.50
2018-08-07T00:06:05.476Z,25.40
2018-08-07T00:08:33.935Z,25.40
2018-08-07T00:11:02.338Z,25.40
2018-08-07T00:13:30.880Z,25.30
2018-08-07T00:15:59.332Z,25.20
2018-08-07T00:18:27.726Z,25.10
2018-08-07T00:20:56.171Z,25.10
2018-08-07T00:23:24.515Z,25.00
2018-08-07T00:25:52.920Z,24.80
2018-08-07T00:28:21.372Z,24.70
2018-08-07T00:30:49.840Z,24.60
2018-08-07T00:33:18.267Z,24.50
2018-08-07T00:38:14.962Z,24.10
2018-08-07T00:40:43.412Z,24.00
2018-08-07T00:43:11.834Z,23.80
2018-08-07T00:45:40.307Z,23.70
2018-08-07T00:48:08.823Z,23.60
2018-08-07T00:50:37.228Z,23.50
2018-08-07T00:53:05.868Z,23.40
2018-08-07T00:55:34.280Z,23.40
2018-08-07T00:58:02.748Z,23.30
2018-08-07T01:00:31.158Z,23.40
2018-08-07T01:02:59.549Z,23.50
2018-08-07T01:05:28.004Z,23.40
2018-08-07T01:07:56.555Z,23.30
2018-08-07T01:10:25.139Z,23.20
2018-08-07T01:12:53.540Z,23.00
2018-08-07T01:15:21.955Z,23.00
2018-08-07T01:17:50.404Z,23.00
2018-08-07T01:20:22.552Z,22.90
2018-08-07T01:22:51.083Z,22.80
2018-08-07T01:25:21.866Z,22.80
2018-08-07T01:27:50.571Z,22.70
2018-08-07T01:30:21.872Z,22.70
2018-08-07T01:32:50.582Z,22.60
2018-08-07T01:35:19.344Z,22.60
2018-08-07T01:37:47.724Z,22.60
2018-08-07T01:40:16.148Z,22.50
2018-08-07T01:42:44.540Z,22.50
2018-08-07T01:45:12.979Z,22.50
2018-08-07T01:47:41.532Z,22.40
2018-08-07T01:50:11.436Z,22.40
2018-08-07T01:52:39.919Z,22.40
2018-08-07T01:55:10.053Z,22.30
2018-08-07T01:57:38.626Z,22.30
2018-08-07T02:00:09.512Z,22.20
2018-08-07T02:02:38.031Z,22.30
2018-08-07T02:05:08.692Z,22.10
2018-08-07T02:07:37.106Z,22.10
2018-08-07T02:10:07.721Z,22.20
2018-08-07T02:12:36.201Z,22.10
2018-08-07T02:15:05.361Z,22.10
2018-08-07T02:17:33.946Z,22.10
2018-08-07T02:20:02.481Z,22.00
2018-08-07T02:22:30.916Z,22.00
2018-08-07T02:24:59.400Z,21.80
2018-08-07T02:27:27.804Z,21.80
2018-08-07T02:29:56.228Z,21.80
2018-08-07T02:32:24.632Z,21.70
2018-08-07T02:34:53.033Z,21.70
2018-08-07T02:37:27.794Z,21.60
2018-08-07T02:39:56.249Z,21.70
2018-08-07T02:42:24.667Z,21.60
2018-08-07T02:44:53.145Z,21.60
2018-08-07T02:47:21.619Z,21.40
2018-08-07T02:49:50.170Z,21.30
2018-08-07T02:52:18.612Z,21.30
2018-08-07T02:54:47.215Z,21.30
2018-08-07T02:57:15.669Z,21.30
2018-08-07T02:59:44.079Z,21.30
2018-08-07T03:02:12.632Z,21.30
2018-08-07T03:04:41.533Z,21.30
2018-08-07T03:07:09.973Z,21.20
2018-08-07T03:09:38.449Z,21.40
2018-08-07T03:12:06.853Z,21.70
2018-08-07T03:14:35.241Z,21.70
2018-08-07T03:17:03.684Z,21.70
2018-08-07T03:19:32.061Z,21.90
2018-08-07T03:22:00.486Z,22.10
2018-08-07T03:24:28.917Z,22.10
2018-08-07T03:26:57.484Z,22.00
2018-08-07T03:29:25.876Z,21.90
2018-08-07T03:31:54.332Z,21.80
2018-08-07T03:34:22.732Z,21.70
2018-08-07T03:36:51.156Z,21.60
2018-08-07T03:39:19.586Z,21.40
2018-08-07T03:41:48.004Z,21.30
2018-08-07T03:44:16.456Z,21.40
2018-08-07T03:46:44.868Z,21.50
2018-08-07T03:49:13.314Z,21.60
2018-08-07T03:51:41.698Z,21.50
2018-08-07T03:54:10.220Z,21.50
2018-08-07T03:56:38.624Z,21.50
2018-08-07T03:59:07.245Z,21.50
2018-08-07T04:01:35.814Z,21.40
2018-08-07T04:04:04.289Z,21.50
2018-08-07T04:06:32.680Z,21.40
2018-08-07T04:09:01.096Z,21.40
2018-08-07T04:11:29.551Z,21.40
2018-08-07T04:13:57.960Z,21.50
2018-08-07T04:16:26.364Z,21.50
2018-08-07T04:18:54.785Z,21.50
2018-08-07T04:21:23.188Z,21.50
2018-08-07T04:23:51.716Z,21.50
2018-08-07T04:26:20.160Z,21.60
2018-08-07T04:28:48.636Z,21.70
2018-08-07T04:31:17.028Z,21.80
2018-08-07T04:33:45.500Z,21.80
2018-08-07T04:36:13.900Z,21.90
2018-08-07T04:38:42.284Z,22.00
2018-08-07T04:41:10.810Z,21.80
2018-08-07T04:43:39.184Z,21.80
2018-08-07T04:46:07.608Z,21.80
2018-08-07T04:48:36.071Z,21.70
2018-08-07T04:51:04.570Z,21.60
2018-08-07T04:53:32.981Z,21.50
2018-08-07T04:56:01.389Z,21.40
2018-08-07T04:58:29.814Z,21.40
2018-08-07T05:00:58.812Z,21.50
2018-08-07T05:03:27.793Z,21.60
2018-08-07T05:05:56.322Z,21.70
2018-08-07T05:08:24.741Z,21.70
2018-08-07T05:10:53.216Z,21.80
2018-08-07T05:13:21.611Z,22.00
2018-08-07T05:15:50.620Z,22.10
2018-08-07T05:18:19.124Z,22.20
2018-08-07T05:20:47.532Z,22.30
2018-08-07T05:23:15.976Z,22.50
2018-08-07T05:25:44.471Z,22.60
2018-08-07T05:28:12.896Z,22.80
2018-08-07T05:30:41.368Z,23.00
2018-08-07T05:33:09.812Z,23.20
2018-08-07T05:35:38.302Z,23.40
2018-08-07T05:38:06.765Z,23.70
2018-08-07T05:40:35.255Z,24.00
2018-08-07T05:43:03.696Z,24.30
2018-08-07T05:45:32.081Z,24.60
2018-08-07T05:48:00.490Z,25.00
2018-08-07T05:50:29.084Z,25.30
2018-08-07T05:52:57.474Z,25.70
2018-08-07T05:55:25.939Z,26.00
2018-08-07T05:57:54.354Z,26.40
2018-08-07T06:00:22.755Z,26.80
2018-08-07T06:02:51.375Z,27.10
2018-08-07T06:05:20.054Z,27.40
2018-08-07T06:07:49.376Z,27.80
2018-08-07T06:10:17.986Z,28.00
2018-08-07T06:12:46.406Z,28.30
2018-08-07T06:15:16.237Z,28.40
2018-08-07T06:17:45.656Z,28.50
2018-08-07T06:20:14.154Z,28.70
2018-08-07T06:22:42.680Z,28.80
2018-08-07T06:25:11.283Z,28.90
2018-08-07T06:27:39.924Z,28.90
2018-08-07T06:30:17.047Z,28.80
2018-08-07T06:32:46.981Z,28.90
2018-08-07T06:35:15.675Z,29.00
2018-08-07T06:37:44.138Z,28.90
2018-08-07T06:40:13.228Z,28.90
2018-08-07T06:42:43.098Z,28.80
2018-08-07T06:45:13.129Z,28.80
2018-08-07T06:47:41.607Z,28.70
2018-08-07T06:50:13.562Z,28.70
2018-08-07T06:52:42.230Z,28.70
2018-08-07T06:55:11.162Z,28.70
2018-08-07T06:57:39.851Z,28.70
2018-08-07T07:00:11.332Z,28.70
2018-08-07T07:02:39.908Z,28.70
2018-08-07T07:05:08.419Z,28.70
2018-08-07T07:07:36.906Z,28.80
2018-08-07T07:10:06.445Z,28.90
2018-08-07T07:12:34.960Z,29.00
2018-08-07T07:15:03.553Z,29.10
2018-08-07T07:17:32.104Z,29.10
2018-08-07T07:20:00.600Z,29.30
2018-08-07T07:22:29.016Z,29.50
2018-08-07T07:24:57.604Z,29.80
2018-08-07T07:27:26.239Z,29.90
2018-08-07T07:29:54.705Z,29.90
2018-08-07T07:32:23.085Z,30.10
2018-08-07T07:34:51.961Z,30.00
2018-08-07T07:37:20.360Z,30.30
2018-08-07T07:39:48.786Z,30.60
2018-08-07T07:42:17.303Z,30.70
2018-08-07T07:44:45.731Z,30.80
2018-08-07T07:47:14.143Z,30.90
2018-08-07T07:49:42.611Z,31.00
2018-08-07T07:52:11.079Z,31.00
2018-08-07T07:54:39.475Z,30.90
2018-08-07T07:57:08.111Z,31.00
2018-08-07T07:59:36.514Z,31.00
2018-08-07T08:02:05.007Z,31.00
2018-08-07T08:04:33.400Z,31.10
2018-08-07T08:07:01.792Z,31.20
2018-08-07T08:09:30.215Z,31.20
2018-08-07T08:11:58.607Z,31.20
2018-08-07T08:14:27.149Z,31.20
2018-08-07T08:16:55.651Z,31.10
2018-08-07T08:19:24.093Z,31.00
2018-08-07T08:21:52.523Z,31.00
2018-08-07T08:24:20.950Z,31.10
2018-08-07T08:26:49.434Z,31.20
2018-08-07T08:29:17.904Z,31.40
2018-08-07T08:31:46.204Z,31.50
2018-08-07T08:34:14.680Z,31.50
2018-08-07T08:36:43.146Z,31.50
2018-08-07T08:39:12.601Z,31.40
2018-08-07T08:41:41.462Z,31.50
2018-08-07T08:44:09.899Z,31.50
2018-08-07T08:46:38.836Z,31.70
2018-08-07T08:49:07.334Z,31.90
2018-08-07T08:51:35.756Z,32.00
2018-08-07T08:54:04.368Z,32.30
2018-08-07T08:56:32.710Z,32.40
2018-08-07T08:59:01.116Z,32.60
2018-08-07T09:01:29.535Z,32.60
2018-08-07T09:03:58.097Z,32.70
2018-08-07T09:06:26.529Z,32.70
2018-08-07T09:08:54.940Z,32.70
2018-08-07T09:11:23.415Z,32.90
2018-08-07T09:13:51.832Z,33.10
2018-08-07T09:16:20.291Z,33.30
2018-08-07T09:18:48.725Z,33.50
2018-08-07T09:21:17.150Z,33.50
2018-08-07T09:23:45.570Z,33.40
2018-08-07T09:26:14.050Z,33.50
2018-08-07T09:28:42.557Z,33.50
2018-08-07T09:31:11.017Z,33.70
2018-08-07T09:33:39.460Z,33.70
2018-08-07T09:36:07.998Z,33.80
2018-08-07T09:38:36.398Z,33.80
2018-08-07T09:41:04.862Z,33.80
2018-08-07T09:43:33.277Z,33.80
2018-08-07T09:46:01.683Z,33.90
2018-08-07T09:48:30.099Z,34.00
2018-08-07T09:50:58.517Z,34.10
2018-08-07T09:53:27.010Z,33.90
2018-08-07T09:55:55.442Z,34.00
2018-08-07T09:58:23.889Z,34.20
2018-08-07T10:00:57.679Z,34.50
2018-08-07T10:03:26.197Z,34.60
2018-08-07T10:05:54.632Z,34.40
2018-08-07T10:08:23.056Z,34.30
2018-08-07T10:10:51.595Z,34.30
2018-08-07T10:13:20.052Z,34.30
2018-08-07T10:15:48.550Z,34.60
2018-08-07T10:18:17.110Z,34.60
2018-08-07T10:20:45.605Z,34.80
2018-08-07T10:23:14.215Z,35.10
2018-08-07T10:25:42.691Z,35.10
2018-08-07T10:28:11.141Z,34.90
2018-08-07T10:30:39.600Z,34.70
2018-08-07T10:33:07.978Z,34.80
2018-08-07T10:35:36.504Z,34.80
2018-08-07T10:38:05.062Z,35.00
2018-08-07T10:40:33.502Z,35.30
2018-08-07T10:43:01.900Z,35.50
2018-08-07T10:45:30.388Z,35.40
2018-08-07T10:47:58.872Z,35.40
2018-08-07T10:50:28.484Z,35.70
2018-08-07T10:52:57.671Z,35.90
2018-08-07T10:55:26.556Z,36.10
2018-08-07T10:57:57.460Z,36.10
2018-08-07T11:00:29.167Z,35.80
2018-08-07T11:02:57.995Z,35.60
2018-08-07T11:05:27.135Z,35.50
2018-08-07T11:07:55.567Z,35.40
2018-08-07T11:10:24.381Z,35.40
2018-08-07T11:12:53.395Z,35.30
2018-08-07T11:15:24.343Z,35.40
2018-08-07T11:17:53.632Z,35.10
2018-08-07T11:20:22.147Z,35.20
2018-08-07T11:22:51.730Z,35.20
2018-08-07T11:25:21.640Z,35.20
2018-08-07T11:27:50.105Z,35.40
2018-08-07T11:30:20.727Z,35.50
2018-08-07T11:32:49.386Z,35.70
2018-08-07T11:35:18.524Z,35.80
2018-08-07T11:37:49.106Z,35.90
2018-08-07T11:40:19.350Z,36.10
2018-08-07T11:42:48.572Z,36.10
2018-08-07T11:45:18.384Z,36.30
2018-08-07T11:47:47.101Z,36.50
2018-08-07T11:50:17.187Z,36.40
2018-08-07T11:52:45.719Z,36.40
2018-08-07T11:55:15.587Z,36.30
2018-08-07T11:57:44.623Z,36.40
2018-08-07T12:00:17.751Z,36.20
2018-08-07T12:02:46.435Z,36.30
2018-08-07T12:05:15.211Z,36.30
2018-08-07T12:07:43.644Z,36.40
2018-08-07T12:10:13.419Z,36.50
2018-08-07T12:12:42.727Z,36.50
2018-08-07T12:15:13.403Z,36.50
2018-08-07T12:17:41.915Z,36.40
2018-08-07T12:20:10.307Z,36.40
2018-08-07T12:22:38.996Z,36.40
2018-08-07T12:25:08.387Z,36.50
2018-08-07T12:27:36.884Z,36.50
2018-08-07T12:30:18.458Z,36.50
2018-08-07T12:32:47.031Z,36.50
2018-08-07T12:35:15.733Z,36.50
2018-08-07T12:37:44.174Z,36.30
2018-08-07T12:40:18.232Z,36.10
2018-08-07T12:42:47.309Z,35.90
2018-08-07T12:45:15.760Z,35.90
2018-08-07T12:47:44.792Z,36.00
2018-08-07T12:50:14.376Z,36.10
2018-08-07T12:52:42.945Z,36.00
2018-08-07T12:55:13.332Z,36.00
2018-08-07T12:57:41.918Z,36.10
2018-08-07T13:00:26.883Z,36.10
2018-08-07T13:02:55.837Z,36.00
2018-08-07T13:05:24.683Z,36.00
2018-08-07T13:07:53.931Z,35.90
2018-08-07T13:10:23.530Z,35.90
2018-08-07T13:12:52.847Z,35.90
2018-08-07T13:15:21.927Z,36.00
2018-08-07T13:17:50.624Z,36.10
2018-08-07T13:20:19.098Z,36.10
2018-08-07T13:22:48.191Z,36.20
2018-08-07T13:25:19.868Z,36.20
2018-08-07T13:27:48.445Z,36.30
2018-08-07T13:30:23.570Z,36.40
2018-08-07T13:32:52.033Z,36.30
2018-08-07T13:35:20.470Z,36.20
2018-08-07T13:37:49.934Z,36.20
2018-08-07T13:40:19.546Z,36.10
2018-08-07T13:42:48.080Z,36.10
2018-08-07T13:45:19.932Z,35.90
2018-08-07T13:47:48.405Z,35.90
2018-08-07T13:50:19.372Z,36.00
2018-08-07T13:52:48.192Z,36.10
2018-08-07T13:55:17.796Z,36.10
2018-08-07T13:57:46.986Z,36.10
2018-08-07T14:00:17.846Z,36.10
2018-08-07T14:02:47.100Z,36.10
2018-08-07T14:05:16.516Z,36.10
2018-08-07T14:07:46.022Z,36.20
2018-08-07T14:10:15.227Z,36.20
2018-08-07T14:12:43.712Z,36.20
2018-08-07T14:15:13.820Z,36.20
2018-08-07T14:17:43.326Z,36.20
2018-08-07T14:20:13.043Z,36.20
2018-08-07T14:22:41.551Z,36.20
2018-08-07T14:25:12.730Z,36.10
2018-08-07T14:27:41.200Z,36.10
2018-08-07T14:30:16.710Z,36.20
2018-08-07T14:32:45.152Z,36.10
2018-08-07T14:35:13.619Z,36.10
2018-08-07T14:37:44.294Z,36.10
2018-08-07T14:40:14.188Z,36.10
2018-08-07T14:42:43.991Z,36.20
2018-08-07T14:45:13.811Z,36.20
2018-08-07T14:47:42.926Z,36.30
2018-08-07T14:50:14.389Z,36.30
2018-08-07T14:52:42.846Z,36.30
2018-08-07T14:55:11.837Z,36.20
2018-08-07T14:57:41.120Z,36.20
2018-08-07T15:00:13.594Z,36.20
2018-08-07T15:02:42.126Z,36.20
2018-08-07T15:05:10.723Z,36.20
2018-08-07T15:07:39.650Z,36.10
2018-08-07T15:10:11.490Z,36.10
2018-08-07T15:12:40.525Z,36.20
2018-08-07T15:15:19.122Z,36.10
2018-08-07T15:17:47.602Z,36.10
2018-08-07T15:20:17.711Z,36.10
2018-08-07T15:22:47.584Z,36.10
2018-08-07T15:25:16.777Z,36.10
2018-08-07T15:27:46.112Z,36.00
2018-08-07T15:30:24.536Z,35.90
2018-08-07T15:32:53.434Z,35.90
2018-08-07T15:35:23.221Z,35.90
2018-08-07T15:37:52.489Z,36.00
2018-08-07T15:40:21.232Z,35.90
2018-08-07T15:42:49.724Z,35.90
2018-08-07T15:45:20.269Z,35.90
2018-08-07T15:47:48.843Z,35.90
2018-08-07T15:50:18.101Z,35.90
2018-08-07T15:52:50.024Z,35.90
2018-08-07T15:55:21.244Z,35.90
2018-08-07T15:57:49.822Z,35.90
2018-08-07T16:00:22.110Z,35.80
2018-08-07T16:02:50.699Z,35.80
2018-08-07T16:05:19.151Z,35.80
2018-08-07T16:07:48.419Z,35.70
2018-08-07T16:10:18.070Z,35.70
2018-08-07T16:12:47.465Z,35.70
2018-08-07T16:15:15.906Z,35.70
2018-08-07T16:17:45.625Z,35.60
2018-08-07T16:20:14.146Z,35.50
2018-08-07T16:22:42.960Z,35.60
2018-08-07T16:25:12.953Z,35.50
2018-08-07T16:27:42.610Z,35.50
2018-08-07T16:30:20.462Z,35.50
2018-08-07T16:32:48.766Z,35.50
2018-08-07T16:35:17.528Z,35.50
2018-08-07T16:37:46.154Z,35.50
2018-08-07T16:40:17.471Z,35.50
2018-08-07T16:42:46.342Z,35.40
2018-08-07T16:45:16.841Z,35.40
2018-08-07T16:47:45.415Z,35.40
2018-08-07T16:50:23.436Z,35.30
2018-08-07T16:52:52.933Z,35.30
2018-08-07T16:55:22.526Z,35.30
2018-08-07T16:57:51.299Z,35.30
2018-08-07T17:00:19.843Z,35.20
2018-08-07T17:05:17.191Z,35.10
2018-08-07T17:07:46.299Z,35.10
2018-08-07T17:10:20.155Z,35.10
2018-08-07T17:12:48.877Z,35.10
2018-08-07T17:15:17.304Z,35.00
2018-08-07T17:17:46.063Z,35.00
2018-08-07T17:20:18.200Z,35.00
2018-08-07T17:22:46.976Z,34.90
2018-08-07T17:25:16.884Z,34.90
2018-08-07T17:27:46.344Z,34.90
2018-08-07T17:30:17.085Z,34.80
2018-08-07T17:32:46.047Z,34.80
2018-08-07T17:35:17.623Z,34.60
2018-08-07T17:37:46.531Z,34.60
2018-08-07T17:40:16.353Z,34.40
2018-08-07T17:42:44.904Z,34.30
2018-08-07T17:45:13.905Z,34.30
2018-08-07T17:47:42.314Z,34.10
2018-08-07T17:50:16.537Z,34.00
2018-08-07T17:52:45.082Z,34.00
2018-08-07T17:55:13.604Z,34.00
2018-08-07T17:57:42.102Z,33.80
2018-08-07T18:00:19.674Z,33.80
2018-08-07T18:02:48.190Z,33.70
2018-08-07T18:05:16.620Z,33.60
2018-08-07T18:07:47.073Z,33.60
2018-08-07T18:10:17.111Z,33.60
2018-08-07T18:12:52.264Z,33.50
2018-08-07T18:15:22.039Z,33.40
2018-08-07T18:17:50.919Z,33.40
2018-08-07T18:20:21.566Z,33.30
2018-08-07T18:22:50.010Z,33.20
2018-08-07T18:25:18.527Z,33.20
2018-08-07T18:27:46.967Z,33.10
2018-08-07T18:30:17.263Z,33.00
2018-08-07T18:32:46.675Z,33.00
2018-08-07T18:35:24.120Z,32.90
2018-08-07T18:37:52.747Z,32.80
2018-08-07T18:40:21.215Z,32.80
2018-08-07T18:42:49.863Z,32.70
2018-08-07T18:45:18.346Z,32.60
2018-08-07T18:47:47.873Z,32.50
2018-08-07T18:50:19.847Z,32.40
2018-08-07T18:55:16.866Z,32.30
2018-08-07T18:57:46.590Z,32.20
2018-08-07T19:00:18.751Z,32.20
2018-08-07T19:02:47.363Z,32.10
2018-08-07T19:05:17.265Z,32.10
2018-08-07T19:07:45.863Z,32.10
2018-08-07T19:10:14.607Z,32.10
2018-08-07T19:12:44.115Z,32.10
2018-08-07T19:15:13.601Z,32.00
2018-08-07T19:17:42.713Z,32.00
2018-08-07T19:20:13.355Z,31.90
2018-08-07T19:22:41.891Z,31.90
2018-08-07T19:25:11.375Z,31.90
2018-08-07T19:30:10.211Z,31.80
2018-08-07T19:32:39.283Z,31.70
2018-08-07T19:35:09.615Z,31.70
2018-08-07T19:37:38.084Z,31.60
2018-08-07T19:40:08.376Z,31.60
2018-08-07T19:42:37.219Z,31.50
2018-08-07T19:45:07.746Z,31.60
2018-08-07T19:47:36.181Z,31.60
2018-08-07T19:50:05.918Z,31.50
2018-08-07T19:52:34.470Z,31.50
2018-08-07T19:55:03.444Z,31.40
2018-08-07T19:57:32.910Z,31.30
2018-08-07T20:00:01.485Z,31.20
2018-08-07T20:02:29.885Z,31.20
2018-08-07T20:04:58.561Z,31.20
2018-08-07T20:07:27.341Z,31.20
2018-08-07T20:09:55.825Z,31.20
2018-08-07T20:12:24.419Z,31.10
2018-08-07T20:14:52.932Z,31.00
2018-08-07T20:17:21.509Z,31.00
2018-08-07T20:19:49.913Z,31.00
2018-08-07T20:22:18.582Z,30.90
2018-08-07T20:24:47.004Z,31.00
2018-08-07T20:27:15.395Z,31.00
2018-08-07T20:29:44.732Z,30.90
2018-08-07T20:32:13.303Z,30.90
2018-08-07T20:34:41.783Z,30.80
2018-08-07T20:37:10.455Z,30.80
2018-08-07T20:39:38.843Z,30.70
2018-08-07T20:42:07.345Z,30.60
2018-08-07T20:44:35.919Z,30.70
2018-08-07T20:47:04.368Z,30.60
2018-08-07T20:49:32.766Z,30.50
2018-08-07T20:52:01.233Z,30.40
2018-08-07T20:54:30.672Z,30.40
2018-08-07T20:56:59.159Z,30.20
2018-08-07T20:59:27.607Z,29.90
2018-08-07T21:01:56.131Z,29.80
2018-08-07T21:04:24.687Z,29.60
2018-08-07T21:06:53.149Z,29.50
2018-08-07T21:09:21.654Z,29.50
2018-08-07T21:11:50.251Z,29.40
2018-08-07T21:14:18.705Z,29.50
2018-08-07T21:16:47.136Z,29.60
2018-08-07T21:19:15.602Z,29.60
2018-08-07T21:21:44.055Z,29.70
2018-08-07T21:24:12.587Z,29.70
2018-08-07T21:26:40.976Z,29.70
2018-08-07T21:29:09.381Z,29.70
2018-08-07T21:31:37.892Z,29.60
2018-08-07T21:36:34.586Z,29.50
2018-08-07T21:39:03.282Z,29.50
2018-08-07T21:41:31.695Z,29.40
2018-08-07T21:44:00.169Z,29.30
2018-08-07T21:46:28.692Z,29.20
2018-08-07T21:48:57.124Z,29.10
2018-08-07T21:51:25.563Z,29.00
2018-08-07T21:53:54.086Z,28.90
2018-08-07T21:56:22.357Z,28.80
2018-08-07T21:58:50.811Z,28.70
2018-08-07T22:01:19.310Z,28.50
2018-08-07T22:03:48.009Z,28.40
2018-08-07T22:06:16.363Z,28.30
2018-08-07T22:08:44.899Z,28.30
2018-08-07T22:11:13.403Z,28.30
2018-08-07T22:13:41.771Z,28.30
2018-08-07T22:16:10.211Z,28.30
2018-08-07T22:18:38.710Z,28.30
2018-08-07T22:21:07.527Z,28.30
2018-08-07T22:23:36.032Z,28.30
2018-08-07T22:26:04.744Z,28.30
2018-08-07T22:28:33.158Z,28.30
2018-08-07T22:31:01.632Z,28.30
2018-08-07T22:33:30.080Z,28.30
2018-08-07T22:35:58.512Z,28.30
2018-08-07T22:38:27.814Z,28.20
2018-08-07T22:40:56.238Z,28.20
2018-08-07T22:43:24.670Z,28.20
2018-08-07T22:45:53.118Z,28.10
2018-08-07T22:48:21.552Z,28.10
2018-08-07T22:50:49.972Z,28.10
2018-08-07T22:53:18.400Z,28.10
2018-08-07T22:55:46.984Z,28.00
2018-08-07T22:58:15.412Z,28.00
2018-08-07T23:00:43.846Z,27.90
2018-08-07T23:03:12.334Z,27.80
2018-08-07T23:05:40.764Z,27.70
2018-08-07T23:08:09.240Z,27.60
2018-08-07T23:10:37.716Z,27.50
2018-08-07T23:13:06.546Z,27.40
2018-08-07T23:15:34.976Z,27.40
2018-08-07T23:18:03.420Z,27.20
2018-08-07T23:20:31.884Z,27.00
2018-08-07T23:23:00.314Z,26.80
2018-08-07T23:25:28.834Z,26.70
2018-08-07T23:27:57.280Z,26.70
2018-08-07T23:30:25.794Z,26.60
2018-08-07T23:32:54.298Z,26.50
2018-08-07T23:35:22.732Z,26.50
2018-08-07T23:37:51.156Z,26.60
2018-08-07T23:40:19.564Z,26.60
2018-08-07T23:42:47.971Z,26.60
2018-08-07T23:45:16.521Z,26.60
2018-08-07T23:47:44.896Z,26.70
2018-08-07T23:50:14.005Z,26.60
2018-08-07T23:52:42.556Z,26.60
2018-08-07T23:55:11.122Z,26.60
2018-08-07T23:57:39.704Z,26.60
